Nord Missouri — 3FBX2 — position and weather

sailwx.info

Track history (hours):
 
Tides and Currents Weather Stations Pressure Air Temp Water Temp Dewpoint Dewpoint Depression Visibility Wind Speed Wind Dir Waves Ship Positions

Nord Missouri

Last reported at 2018-Jun-19 12:30 UTC. Time now 2018-Jun-19 12:29 UTC.
Position N 44°27' E 037°34'.

Length 200 m; draft 6.8 m.

Type: Cargo ship. MMSI: 374171000.

Date/timePositionNaut miles runAvg speedWind from/ knotsBaromVisibWave heightAir tempDewpointWater temp
2018-Jun-19 12:30N 44°27' E 037°34'0 0.8
2018-Jun-19 12:00N 44°27' E 037°34'0 0.7
2018-Jun-19 11:30N 44°26' E 037°34'0 0.7
2018-Jun-19 11:00N 44°26' E 037°34'0 0.6
2018-Jun-19 10:30N 44°26' E 037°34'0 0.5
2018-Jun-19 10:00N 44°26' E 037°34'0 0.5
2018-Jun-19 09:30N 44°25' E 037°34'0 0.5
2018-Jun-19 09:00N 44°25' E 037°34'0 0.4
2018-Jun-19 08:30N 44°25' E 037°34'0 0.3
2018-Jun-19 08:00N 44°25' E 037°35'2142.2
2018-Jun-19 07:30N 44°35' E 038°01'0 0.0
2018-Jun-19 07:00N 44°35' E 038°01'2141.6
2018-Jun-19 06:30N 44°25' E 037°35'0 0.3
2018-Jun-19 06:00N 44°25' E 037°35'0 0.3
2018-Jun-19 05:30N 44°25' E 037°36'0 0.3
2018-Jun-19 05:00N 44°25' E 037°36'0 0.3
2018-Jun-19 04:30N 44°25' E 037°36'0 0.3
2018-Jun-19 04:00N 44°26' E 037°36'0 0.3
2018-Jun-19 03:30N 44°26' E 037°36'0 0.3
2018-Jun-19 03:00N 44°26' E 037°36'0 0.3
2018-Jun-19 02:30N 44°26' E 037°36'0 0.2
2018-Jun-19 02:00N 44°26' E 037°36'0 0.1
2018-Jun-19 01:30N 44°26' E 037°36'0 0.1
2018-Jun-19 01:00N 44°26' E 037°35'0 0.1
2018-Jun-19 00:30N 44°26' E 037°35'0 0.2
2018-Jun-19 00:00N 44°26' E 037°35'0 0.3
2018-Jun-18 23:28N 44°26' E 037°35'0 0.3
2018-Jun-18 22:59N 44°26' E 037°35'0 0.3
2018-Jun-18 22:30N 44°26' E 037°35'0 0.4
2018-Jun-18 22:00N 44°26' E 037°35'0 0.4
2018-Jun-18 21:30N 44°25' E 037°35'0 0.5
2018-Jun-18 21:00N 44°25' E 037°34'0 0.4
2018-Jun-18 20:30N 44°25' E 037°34'2139.9
2018-Jun-18 19:59N 44°34' E 037°60'0 0.0
2018-Jun-18 19:30N 44°34' E 037°60'0 0.0
2018-Jun-18 19:00N 44°34' E 037°60'2752.8
2018-Jun-18 18:30N 44°26' E 037°25'5 9.9
2018-Jun-18 18:00N 44°25' E 037°18'5 9.9
2018-Jun-18 17:30N 44°24' E 037°11'5 9.8
2018-Jun-18 16:59N 44°23' E 037°04'5 9.7
2018-Jun-18 16:30N 44°22' E 036°58'  
2018-Jun-16 07:33N 43°59' E 032°41'112.3
2018-Jun-16 07:31N 43°59' E 032°40'612.5
2018-Jun-16 07:00N 44°04' E 032°34'3512.9
2018-Jun-16 04:16N 44°28' E 031°58'413.1
2018-Jun-16 04:00N 44°31' E 031°55'613.0
2018-Jun-16 03:30N 44°36' E 031°50'1413.1
2018-Jun-16 02:25N 44°48' E 031°39'2212.9
2018-Jun-16 00:42N 45°07' E 031°23'313.1
2018-Jun-16 00:30N 45°10' E 031°23'2713.1
2018-Jun-15 22:26N 45°37' E 031°18'613.4
2018-Jun-15 21:59N 45°43' E 031°17'613.4
2018-Jun-15 21:30N 45°49' E 031°16'713.3
2018-Jun-15 21:01N 45°56' E 031°15'612.6
2018-Jun-15 20:30N 46°02' E 031°12'713.4
2018-Jun-15 20:00N 46°07' E 031°06'713.4
2018-Jun-15 19:30N 46°12' E 030°59'611.8
2018-Jun-15 19:01N 46°16' E 030°54'712.7
2018-Jun-15 18:27N 46°23' E 030°55'612.8
2018-Jun-15 18:01N 46°29' E 030°55'5 9.3
2018-Jun-15 17:30N 46°33' E 030°59'3 6.2
2018-Jun-15 17:00N 46°36' E 031°01'2 0.1
2018-Jun-15 04:22N 46°37' E 031°02'0 0.0
2018-Jun-15 03:52N 46°37' E 031°02'0 0.0
2018-Jun-15 01:22N 46°37' E 031°02'0 0.0
2018-Jun-15 00:58N 46°37' E 031°02'0 0.0
2018-Jun-14 23:31N 46°37' E 031°02'0 0.0
2018-Jun-14 23:25N 46°37' E 031°02'0 0.0
2018-Jun-14 22:55N 46°37' E 031°02'0 0.0
2018-Jun-14 22:28N 46°37' E 031°02'0 0.0
2018-Jun-14 21:43N 46°37' E 031°02'0 0.0
2018-Jun-14 20:13N 46°37' E 031°02'0 0.0
2018-Jun-14 19:37N 46°37' E 031°02'0 0.0
2018-Jun-14 19:25N 46°37' E 031°02'0 0.0
2018-Jun-14 18:49N 46°37' E 031°02'0 0.0
2018-Jun-14 18:19N 46°37' E 031°02'0 0.0
2018-Jun-14 17:58N 46°37' E 031°02'0 0.0
2018-Jun-14 17:28N 46°37' E 031°02'0 0.0
2018-Jun-14 16:58N 46°37' E 031°02'0 0.0
2018-Jun-14 16:25N 46°37' E 031°02'0 0.0
2018-Jun-14 15:34N 46°37' E 031°02'0 0.0
2018-Jun-14 15:22N 46°37' E 031°02'0 0.0
2018-Jun-14 14:52N 46°37' E 031°02'0 0.0
2018-Jun-14 14:28N 46°37' E 031°02'0 0.0
2018-Jun-14 13:58N 46°37' E 031°02'0 0.0
2018-Jun-14 08:16N 46°37' E 031°02'0 0.0
2018-Jun-14 07:31N 46°37' E 031°02'0 0.0
2018-Jun-14 07:28N 46°37' E 031°02'0 0.0
2018-Jun-14 06:58N 46°37' E 031°02'0 0.0
2018-Jun-14 06:28N 46°37' E 031°02'0 0.0
2018-Jun-14 04:58N 46°37' E 031°02'0 0.0
2018-Jun-14 04:25N 46°37' E 031°02'0 0.0
2018-Jun-14 03:58N 46°37' E 031°02'0 0.0
2018-Jun-14 03:16N 46°37' E 031°02'0 0.0
2018-Jun-14 02:58N 46°37' E 031°02'0 0.0
2018-Jun-14 02:28N 46°37' E 031°02'0 0.0
2018-Jun-14 01:58N 46°37' E 031°02'0 0.0
2018-Jun-14 01:25N 46°37' E 031°02'0 0.0
2018-Jun-14 00:58N 46°37' E 031°02'0 0.0
2018-Jun-14 00:25N 46°37' E 031°02'0 0.0
2018-Jun-13 23:58N 46°37' E 031°02'0 0.0
2018-Jun-13 23:28N 46°37' E 031°02'0 0.0
2018-Jun-13 22:58N 46°37' E 031°02'0 0.0
2018-Jun-13 22:28N 46°37' E 031°02'0 0.0
2018-Jun-13 21:58N 46°37' E 031°02'0 0.0
2018-Jun-13 21:28N 46°37' E 031°02'0 0.0
2018-Jun-13 20:58N 46°37' E 031°02'0 0.0
2018-Jun-13 20:25N 46°37' E 031°02'0 0.0
2018-Jun-13 19:58N 46°37' E 031°02'0 0.0
2018-Jun-13 19:28N 46°37' E 031°02'0 0.0
2018-Jun-13 18:52N 46°37' E 031°02'0 0.0
2018-Jun-13 18:28N 46°37' E 031°02'0 0.0
2018-Jun-13 17:58N 46°37' E 031°02'0 0.0
2018-Jun-13 17:28N 46°37' E 031°02'0 0.0
2018-Jun-13 16:19N 46°37' E 031°02'0 0.0
2018-Jun-13 15:58N 46°37' E 031°02'0 0.0
2018-Jun-13 14:13N 46°37' E 031°02'0 0.0
2018-Jun-13 13:43N 46°37' E 031°02'0 0.0
2018-Jun-13 12:19N 46°37' E 031°02'0 0.0
2018-Jun-13 11:52N 46°37' E 031°02'0 0.0
2018-Jun-13 10:16N 46°37' E 031°02'0 0.0
2018-Jun-13 09:58N 46°37' E 031°02'0 0.0
2018-Jun-13 09:16N 46°37' E 031°02'0 0.0
2018-Jun-13 04:10N 46°37' E 031°02'0 0.0
2018-Jun-13 03:55N 46°37' E 031°02'0 0.0
2018-Jun-13 03:22N 46°37' E 031°02'0 0.0
2018-Jun-13 02:46N 46°37' E 031°02'0 0.0
2018-Jun-13 02:10N 46°37' E 031°02'0 0.0
2018-Jun-13 01:52N 46°37' E 031°02'0 0.0
2018-Jun-13 01:10N 46°37' E 031°02'0 0.0
2018-Jun-13 00:40N 46°37' E 031°02'0 0.0
2018-Jun-13 00:28N 46°37' E 031°02'0 0.0
2018-Jun-12 23:58N 46°37' E 031°02'0 0.0
2018-Jun-12 23:28N 46°37' E 031°02'0 0.0
2018-Jun-12 22:58N 46°37' E 031°02'0 0.0
2018-Jun-12 22:28N 46°37' E 031°02'0 0.0
2018-Jun-12 21:58N 46°37' E 031°02'0 0.0
2018-Jun-12 21:28N 46°37' E 031°02'0 0.0
2018-Jun-12 20:58N 46°37' E 031°02'0 0.0
2018-Jun-12 20:28N 46°37' E 031°02'0 0.0
2018-Jun-12 19:58N 46°37' E 031°02'0 0.0
2018-Jun-12 19:28N 46°37' E 031°02'0 0.0
2018-Jun-12 18:58N 46°37' E 031°02'0 0.0
2018-Jun-12 18:28N 46°37' E 031°02'0 0.0
2018-Jun-12 17:52N 46°37' E 031°02'0 0.0
2018-Jun-12 17:28N 46°37' E 031°02'0 0.0
2018-Jun-12 02:58N 46°37' E 031°02'0 0.0
2018-Jun-12 02:04N 46°37' E 031°02'0 0.0
2018-Jun-12 01:58N 46°37' E 031°02'0 0.0
2018-Jun-12 01:25N 46°37' E 031°02'0 0.0
2018-Jun-11 23:19N 46°37' E 031°02'0 0.0
2018-Jun-11 22:58N 46°37' E 031°02'0 0.0
2018-Jun-11 22:19N 46°37' E 031°02'0 0.0
2018-Jun-11 21:22N 46°37' E 031°02'0 0.0
2018-Jun-11 20:55N 46°37' E 031°02'0 0.0
2018-Jun-11 20:28N 46°37' E 031°02'0 0.0
2018-Jun-11 19:55N 46°37' E 031°02'0 0.0
2018-Jun-11 19:28N 46°37' E 031°02'0 0.0
2018-Jun-11 18:58N 46°37' E 031°02'0 0.0
2018-Jun-11 17:25N 46°37' E 031°02'0 0.0
2018-Jun-11 16:34N 46°37' E 031°02'0 0.0
2018-Jun-11 11:49N 46°37' E 031°02'0 0.0
2018-Jun-11 10:13N 46°37' E 031°02'0 0.0
2018-Jun-11 09:07N 46°37' E 031°02'0 0.0
2018-Jun-10 15:59N 46°37' E 031°02'1 1.6
2018-Jun-10 15:31N 46°37' E 031°01'3 6.6
2018-Jun-10 15:00N 46°33' E 030°60'4 7.2
2018-Jun-10 14:31N 46°30' E 030°57'1010.4
2018-Jun-10 13:30N 46°20' E 030°57'510.6
2018-Jun-10 13:00N 46°15' E 030°60'611.6
2018-Jun-10 12:30N 46°11' E 031°06'611.5
2018-Jun-10 12:00N 46°07' E 031°11'510.8
2018-Jun-10 11:30N 46°02' E 031°15'611.8
2018-Jun-10 11:00N 45°56' E 031°15'611.8
2018-Jun-10 10:30N 45°50' E 031°14'611.8
2018-Jun-10 10:00N 45°44' E 031°14'1111.7
2018-Jun-10 09:04N 45°34' E 031°12'311.7
2018-Jun-10 08:49N 45°31' E 031°12'411.7
2018-Jun-10 08:30N 45°27' E 031°11'611.6
2018-Jun-10 08:00N 45°21' E 031°11'611.6
2018-Jun-10 07:31N 45°15' E 031°10'611.6
2018-Jun-10 06:58N 45°09' E 031°09'511.6
2018-Jun-10 06:30N 45°04' E 031°09'611.8
2018-Jun-10 06:00N 44°58' E 031°08'611.9
2018-Jun-10 05:30N 44°52' E 031°07'611.9
2018-Jun-10 05:00N 44°46' E 031°07'611.9
2018-Jun-10 04:30N 44°40' E 031°06'611.9
2018-Jun-10 04:00N 44°34' E 031°05'611.7
2018-Jun-10 03:31N 44°29' E 031°04'611.5
2018-Jun-10 03:00N 44°23' E 031°04'611.2
2018-Jun-10 02:30N 44°17' E 031°03'611.2
2018-Jun-10 02:00N 44°12' E 031°03'611.5
2018-Jun-10 01:30N 44°06' E 031°03'711.7
2018-Jun-10 00:54N 43°59' E 031°04'511.5
2018-Jun-10 00:30N 43°54' E 031°05'711.7
2018-Jun-09 23:56N 43°48' E 031°06'511.7
2018-Jun-09 23:30N 43°43' E 031°06'611.9
2018-Jun-09 23:00N 43°37' E 031°07'612.1
2018-Jun-09 22:30N 43°31' E 031°08'612.3
2018-Jun-09 22:00N 43°25' E 031°09'612.3
2018-Jun-09 21:30N 43°18' E 031°10'612.3
2018-Jun-09 21:00N 43°12' E 031°10'612.2
2018-Jun-09 20:30N 43°06' E 031°11'611.9
2018-Jun-09 20:00N 43°00' E 031°11'611.3
2018-Jun-09 19:30N 42°56' E 031°06'611.2
2018-Jun-09 19:00N 42°52' E 031°01'611.2
2018-Jun-09 18:30N 42°47' E 030°56'611.3
2018-Jun-09 18:00N 42°43' E 030°51'611.3
2018-Jun-09 17:30N 42°39' E 030°46'611.3
2018-Jun-09 17:00N 42°35' E 030°41'611.3
2018-Jun-09 16:31N 42°30' E 030°36'611.5
2018-Jun-09 16:00N 42°26' E 030°31'611.6
2018-Jun-09 15:30N 42°21' E 030°26'1111.6
2018-Jun-09 14:31N 42°13' E 030°16'611.6
2018-Jun-09 14:00N 42°08' E 030°11'611.5
2018-Jun-09 13:31N 42°04' E 030°06'611.5
2018-Jun-09 13:00N 41°59' E 030°01'  
Track history (hours):
 
Tides and Currents Weather Stations Pressure Air Temp Water Temp Dewpoint Dewpoint Depression Visibility Wind Speed Wind Dir Waves Ship Positions

Nord Missouri

Last reported at 2018-Jun-19 12:30 UTC. Time now 2018-Jun-19 12:29 UTC.
Position N 44°27' E 037°34'.

Length 200 m; draft 6.8 m.

Type: Cargo ship. MMSI: 374171000.

Date/timePositionNaut miles runAvg speedWind from/ knotsBaromVisibWave heightAir tempDewpointWater temp
2018-Jun-19 12:30N 44°27' E 037°34'0 0.8
2018-Jun-19 12:00N 44°27' E 037°34'0 0.7
2018-Jun-19 11:30N 44°26' E 037°34'0 0.7
2018-Jun-19 11:00N 44°26' E 037°34'0 0.6
2018-Jun-19 10:30N 44°26' E 037°34'0 0.5
2018-Jun-19 10:00N 44°26' E 037°34'0 0.5
2018-Jun-19 09:30N 44°25' E 037°34'0 0.5
2018-Jun-19 09:00N 44°25' E 037°34'0 0.4
2018-Jun-19 08:30N 44°25' E 037°34'0 0.3
2018-Jun-19 08:00N 44°25' E 037°35'2142.2
2018-Jun-19 07:30N 44°35' E 038°01'0 0.0
2018-Jun-19 07:00N 44°35' E 038°01'2141.6
2018-Jun-19 06:30N 44°25' E 037°35'0 0.3
2018-Jun-19 06:00N 44°25' E 037°35'0 0.3
2018-Jun-19 05:30N 44°25' E 037°36'0 0.3
2018-Jun-19 05:00N 44°25' E 037°36'0 0.3
2018-Jun-19 04:30N 44°25' E 037°36'0 0.3
2018-Jun-19 04:00N 44°26' E 037°36'0 0.3
2018-Jun-19 03:30N 44°26' E 037°36'0 0.3
2018-Jun-19 03:00N 44°26' E 037°36'0 0.3
2018-Jun-19 02:30N 44°26' E 037°36'0 0.2
2018-Jun-19 02:00N 44°26' E 037°36'0 0.1
2018-Jun-19 01:30N 44°26' E 037°36'0 0.1
2018-Jun-19 01:00N 44°26' E 037°35'0 0.1
2018-Jun-19 00:30N 44°26' E 037°35'0 0.2
2018-Jun-19 00:00N 44°26' E 037°35'0 0.3
2018-Jun-18 23:28N 44°26' E 037°35'0 0.3
2018-Jun-18 22:59N 44°26' E 037°35'0 0.3
2018-Jun-18 22:30N 44°26' E 037°35'0 0.4
2018-Jun-18 22:00N 44°26' E 037°35'0 0.4
2018-Jun-18 21:30N 44°25' E 037°35'0 0.5
2018-Jun-18 21:00N 44°25' E 037°34'0 0.4
2018-Jun-18 20:30N 44°25' E 037°34'2139.9
2018-Jun-18 19:59N 44°34' E 037°60'0 0.0
2018-Jun-18 19:30N 44°34' E 037°60'0 0.0
2018-Jun-18 19:00N 44°34' E 037°60'2752.8
2018-Jun-18 18:30N 44°26' E 037°25'5 9.9
2018-Jun-18 18:00N 44°25' E 037°18'5 9.9
2018-Jun-18 17:30N 44°24' E 037°11'5 9.8
2018-Jun-18 16:59N 44°23' E 037°04'5 9.7
2018-Jun-18 16:30N 44°22' E 036°58'  
2018-Jun-16 07:33N 43°59' E 032°41'112.3
2018-Jun-16 07:31N 43°59' E 032°40'612.5
2018-Jun-16 07:00N 44°04' E 032°34'3512.9
2018-Jun-16 04:16N 44°28' E 031°58'413.1
2018-Jun-16 04:00N 44°31' E 031°55'613.0
2018-Jun-16 03:30N 44°36' E 031°50'1413.1
2018-Jun-16 02:25N 44°48' E 031°39'2212.9
2018-Jun-16 00:42N 45°07' E 031°23'313.1
2018-Jun-16 00:30N 45°10' E 031°23'2713.1
2018-Jun-15 22:26N 45°37' E 031°18'613.4
2018-Jun-15 21:59N 45°43' E 031°17'613.4
2018-Jun-15 21:30N 45°49' E 031°16'713.3
2018-Jun-15 21:01N 45°56' E 031°15'612.6
2018-Jun-15 20:30N 46°02' E 031°12'713.4
2018-Jun-15 20:00N 46°07' E 031°06'713.4
2018-Jun-15 19:30N 46°12' E 030°59'611.8
2018-Jun-15 19:01N 46°16' E 030°54'712.7
2018-Jun-15 18:27N 46°23' E 030°55'612.8
2018-Jun-15 18:01N 46°29' E 030°55'5 9.3
2018-Jun-15 17:30N 46°33' E 030°59'3 6.2
2018-Jun-15 17:00N 46°36' E 031°01'2 0.1
2018-Jun-15 04:22N 46°37' E 031°02'0 0.0
2018-Jun-15 03:52N 46°37' E 031°02'0 0.0
2018-Jun-15 01:22N 46°37' E 031°02'0 0.0
2018-Jun-15 00:58N 46°37' E 031°02'0 0.0
2018-Jun-14 23:31N 46°37' E 031°02'0 0.0
2018-Jun-14 23:25N 46°37' E 031°02'0 0.0
2018-Jun-14 22:55N 46°37' E 031°02'0 0.0
2018-Jun-14 22:28N 46°37' E 031°02'0 0.0
2018-Jun-14 21:43N 46°37' E 031°02'0 0.0
2018-Jun-14 20:13N 46°37' E 031°02'0 0.0
2018-Jun-14 19:37N 46°37' E 031°02'0 0.0
2018-Jun-14 19:25N 46°37' E 031°02'0 0.0
2018-Jun-14 18:49N 46°37' E 031°02'0 0.0
2018-Jun-14 18:19N 46°37' E 031°02'0 0.0
2018-Jun-14 17:58N 46°37' E 031°02'0 0.0
2018-Jun-14 17:28N 46°37' E 031°02'0 0.0
2018-Jun-14 16:58N 46°37' E 031°02'0 0.0
2018-Jun-14 16:25N 46°37' E 031°02'0 0.0
2018-Jun-14 15:34N 46°37' E 031°02'0 0.0
2018-Jun-14 15:22N 46°37' E 031°02'0 0.0
2018-Jun-14 14:52N 46°37' E 031°02'0 0.0
2018-Jun-14 14:28N 46°37' E 031°02'0 0.0
2018-Jun-14 13:58N 46°37' E 031°02'0 0.0
2018-Jun-14 08:16N 46°37' E 031°02'0 0.0
2018-Jun-14 07:31N 46°37' E 031°02'0 0.0
2018-Jun-14 07:28N 46°37' E 031°02'0 0.0
2018-Jun-14 06:58N 46°37' E 031°02'0 0.0
2018-Jun-14 06:28N 46°37' E 031°02'0 0.0
2018-Jun-14 04:58N 46°37' E 031°02'0 0.0
2018-Jun-14 04:25N 46°37' E 031°02'0 0.0
2018-Jun-14 03:58N 46°37' E 031°02'0 0.0
2018-Jun-14 03:16N 46°37' E 031°02'0 0.0
2018-Jun-14 02:58N 46°37' E 031°02'0 0.0
2018-Jun-14 02:28N 46°37' E 031°02'0 0.0
2018-Jun-14 01:58N 46°37' E 031°02'0 0.0
2018-Jun-14 01:25N 46°37' E 031°02'0 0.0
2018-Jun-14 00:58N 46°37' E 031°02'0 0.0
2018-Jun-14 00:25N 46°37' E 031°02'0 0.0
2018-Jun-13 23:58N 46°37' E 031°02'0 0.0
2018-Jun-13 23:28N 46°37' E 031°02'0 0.0
2018-Jun-13 22:58N 46°37' E 031°02'0 0.0
2018-Jun-13 22:28N 46°37' E 031°02'0 0.0
2018-Jun-13 21:58N 46°37' E 031°02'0 0.0
2018-Jun-13 21:28N 46°37' E 031°02'0 0.0
2018-Jun-13 20:58N 46°37' E 031°02'0 0.0
2018-Jun-13 20:25N 46°37' E 031°02'0 0.0
2018-Jun-13 19:58N 46°37' E 031°02'0 0.0
2018-Jun-13 19:28N 46°37' E 031°02'0 0.0
2018-Jun-13 18:52N 46°37' E 031°02'0 0.0
2018-Jun-13 18:28N 46°37' E 031°02'0 0.0
2018-Jun-13 17:58N 46°37' E 031°02'0 0.0
2018-Jun-13 17:28N 46°37' E 031°02'0 0.0
2018-Jun-13 16:19N 46°37' E 031°02'0 0.0
2018-Jun-13 15:58N 46°37' E 031°02'0 0.0
2018-Jun-13 14:13N 46°37' E 031°02'0 0.0
2018-Jun-13 13:43N 46°37' E 031°02'0 0.0
2018-Jun-13 12:19N 46°37' E 031°02'0 0.0
2018-Jun-13 11:52N 46°37' E 031°02'0 0.0
2018-Jun-13 10:16N 46°37' E 031°02'0 0.0
2018-Jun-13 09:58N 46°37' E 031°02'0 0.0
2018-Jun-13 09:16N 46°37' E 031°02'0 0.0
2018-Jun-13 04:10N 46°37' E 031°02'0 0.0
2018-Jun-13 03:55N 46°37' E 031°02'0 0.0
2018-Jun-13 03:22N 46°37' E 031°02'0 0.0
2018-Jun-13 02:46N 46°37' E 031°02'0 0.0
2018-Jun-13 02:10N 46°37' E 031°02'0 0.0
2018-Jun-13 01:52N 46°37' E 031°02'0 0.0
2018-Jun-13 01:10N 46°37' E 031°02'0 0.0
2018-Jun-13 00:40N 46°37' E 031°02'0 0.0
2018-Jun-13 00:28N 46°37' E 031°02'0 0.0
2018-Jun-12 23:58N 46°37' E 031°02'0 0.0
2018-Jun-12 23:28N 46°37' E 031°02'0 0.0
2018-Jun-12 22:58N 46°37' E 031°02'0 0.0
2018-Jun-12 22:28N 46°37' E 031°02'0 0.0
2018-Jun-12 21:58N 46°37' E 031°02'0 0.0
2018-Jun-12 21:28N 46°37' E 031°02'0 0.0
2018-Jun-12 20:58N 46°37' E 031°02'0 0.0
2018-Jun-12 20:28N 46°37' E 031°02'0 0.0
2018-Jun-12 19:58N 46°37' E 031°02'0 0.0
2018-Jun-12 19:28N 46°37' E 031°02'0 0.0
2018-Jun-12 18:58N 46°37' E 031°02'0 0.0
2018-Jun-12 18:28N 46°37' E 031°02'0 0.0
2018-Jun-12 17:52N 46°37' E 031°02'0 0.0
2018-Jun-12 17:28N 46°37' E 031°02'0 0.0
2018-Jun-12 02:58N 46°37' E 031°02'0 0.0
2018-Jun-12 02:04N 46°37' E 031°02'0 0.0
2018-Jun-12 01:58N 46°37' E 031°02'0 0.0
2018-Jun-12 01:25N 46°37' E 031°02'0 0.0
2018-Jun-11 23:19N 46°37' E 031°02'0 0.0
2018-Jun-11 22:58N 46°37' E 031°02'0 0.0
2018-Jun-11 22:19N 46°37' E 031°02'0 0.0
2018-Jun-11 21:22N 46°37' E 031°02'0 0.0
2018-Jun-11 20:55N 46°37' E 031°02'0 0.0
2018-Jun-11 20:28N 46°37' E 031°02'0 0.0
2018-Jun-11 19:55N 46°37' E 031°02'0 0.0
2018-Jun-11 19:28N 46°37' E 031°02'0 0.0
2018-Jun-11 18:58N 46°37' E 031°02'0 0.0
2018-Jun-11 17:25N 46°37' E 031°02'0 0.0
2018-Jun-11 16:34N 46°37' E 031°02'0 0.0
2018-Jun-11 11:49N 46°37' E 031°02'0 0.0
2018-Jun-11 10:13N 46°37' E 031°02'0 0.0
2018-Jun-11 09:07N 46°37' E 031°02'0 0.0
2018-Jun-10 15:59N 46°37' E 031°02'1 1.6
2018-Jun-10 15:31N 46°37' E 031°01'3 6.6
2018-Jun-10 15:00N 46°33' E 030°60'4 7.2
2018-Jun-10 14:31N 46°30' E 030°57'1010.4
2018-Jun-10 13:30N 46°20' E 030°57'510.6
2018-Jun-10 13:00N 46°15' E 030°60'611.6
2018-Jun-10 12:30N 46°11' E 031°06'611.5
2018-Jun-10 12:00N 46°07' E 031°11'510.8
2018-Jun-10 11:30N 46°02' E 031°15'611.8
2018-Jun-10 11:00N 45°56' E 031°15'611.8
2018-Jun-10 10:30N 45°50' E 031°14'611.8
2018-Jun-10 10:00N 45°44' E 031°14'1111.7
2018-Jun-10 09:04N 45°34' E 031°12'311.7
2018-Jun-10 08:49N 45°31' E 031°12'411.7
2018-Jun-10 08:30N 45°27' E 031°11'611.6
2018-Jun-10 08:00N 45°21' E 031°11'611.6
2018-Jun-10 07:31N 45°15' E 031°10'611.6
2018-Jun-10 06:58N 45°09' E 031°09'511.6
2018-Jun-10 06:30N 45°04' E 031°09'611.8
2018-Jun-10 06:00N 44°58' E 031°08'611.9
2018-Jun-10 05:30N 44°52' E 031°07'611.9
2018-Jun-10 05:00N 44°46' E 031°07'611.9
2018-Jun-10 04:30N 44°40' E 031°06'611.9
2018-Jun-10 04:00N 44°34' E 031°05'611.7
2018-Jun-10 03:31N 44°29' E 031°04'611.5
2018-Jun-10 03:00N 44°23' E 031°04'611.2
2018-Jun-10 02:30N 44°17' E 031°03'611.2
2018-Jun-10 02:00N 44°12' E 031°03'611.5
2018-Jun-10 01:30N 44°06' E 031°03'711.7
2018-Jun-10 00:54N 43°59' E 031°04'511.5
2018-Jun-10 00:30N 43°54' E 031°05'711.7
2018-Jun-09 23:56N 43°48' E 031°06'511.7
2018-Jun-09 23:30N 43°43' E 031°06'611.9
2018-Jun-09 23:00N 43°37' E 031°07'612.1
2018-Jun-09 22:30N 43°31' E 031°08'612.3
2018-Jun-09 22:00N 43°25' E 031°09'612.3
2018-Jun-09 21:30N 43°18' E 031°10'612.3
2018-Jun-09 21:00N 43°12' E 031°10'612.2
2018-Jun-09 20:30N 43°06' E 031°11'611.9
2018-Jun-09 20:00N 43°00' E 031°11'611.3
2018-Jun-09 19:30N 42°56' E 031°06'611.2
2018-Jun-09 19:00N 42°52' E 031°01'611.2
2018-Jun-09 18:30N 42°47' E 030°56'611.3
2018-Jun-09 18:00N 42°43' E 030°51'611.3
2018-Jun-09 17:30N 42°39' E 030°46'611.3
2018-Jun-09 17:00N 42°35' E 030°41'611.3
2018-Jun-09 16:31N 42°30' E 030°36'611.5
2018-Jun-09 16:00N 42°26' E 030°31'611.6
2018-Jun-09 15:30N 42°21' E 030°26'1111.6
2018-Jun-09 14:31N 42°13' E 030°16'611.6
2018-Jun-09 14:00N 42°08' E 030°11'611.5
2018-Jun-09 13:31N 42°04' E 030°06'611.5
2018-Jun-09 13:00N 41°59' E 030°01'  

Dump ship's entire track history